sensor_id;sensor_type;location;lat;lon;timestamp;P1;durP1;ratioP1;P2;durP2;ratioP2
72801;SDS011;61891;55.818;37.084;2022-07-10T00:01:55;18.73;;;14.98;;
72801;SDS011;61891;55.818;37.084;2022-07-10T00:04:21;17.90;;;14.63;;
72801;SDS011;61891;55.818;37.084;2022-07-10T00:06:46;19.25;;;14.25;;
72801;SDS011;61891;55.818;37.084;2022-07-10T00:09:13;17.10;;;14.38;;
72801;SDS011;61891;55.818;37.084;2022-07-10T00:11:39;18.65;;;14.63;;
72801;SDS011;61891;55.818;37.084;2022-07-10T00:14:06;17.67;;;13.43;;
72801;SDS011;61891;55.818;37.084;2022-07-10T00:16:31;19.33;;;14.07;;
72801;SDS011;61891;55.818;37.084;2022-07-10T00:18:57;17.10;;;13.70;;
72801;SDS011;61891;55.818;37.084;2022-07-10T00:21:23;17.90;;;13.68;;
72801;SDS011;61891;55.818;37.084;2022-07-10T00:23:49;16.00;;;13.80;;
72801;SDS011;61891;55.818;37.084;2022-07-10T00:26:15;17.55;;;13.73;;
72801;SDS011;61891;55.818;37.084;2022-07-10T00:28:41;17.15;;;13.35;;
72801;SDS011;61891;55.818;37.084;2022-07-10T00:31:06;17.60;;;13.57;;
72801;SDS011;61891;55.818;37.084;2022-07-10T00:33:36;20.15;;;14.80;;
72801;SDS011;61891;55.818;37.084;2022-07-10T00:36:03;16.88;;;13.15;;
72801;SDS011;61891;55.818;37.084;2022-07-10T00:38:30;16.95;;;13.57;;
72801;SDS011;61891;55.818;37.084;2022-07-10T00:40:56;17.08;;;13.73;;
72801;SDS011;61891;55.818;37.084;2022-07-10T00:43:22;16.90;;;14.05;;
72801;SDS011;61891;55.818;37.084;2022-07-10T00:45:48;18.20;;;13.43;;
72801;SDS011;61891;55.818;37.084;2022-07-10T00:50:40;15.68;;;12.50;;
72801;SDS011;61891;55.818;37.084;2022-07-10T00:53:10;17.70;;;12.63;;
72801;SDS011;61891;55.818;37.084;2022-07-10T00:55:38;16.70;;;12.70;;
72801;SDS011;61891;55.818;37.084;2022-07-10T00:58:06;15.48;;;12.48;;
72801;SDS011;61891;55.818;37.084;2022-07-10T01:00:34;15.75;;;12.95;;
72801;SDS011;61891;55.818;37.084;2022-07-10T01:03:02;16.08;;;13.48;;
72801;SDS011;61891;55.818;37.084;2022-07-10T01:05:29;16.10;;;12.88;;
72801;SDS011;61891;55.818;37.084;2022-07-10T01:07:54;14.90;;;12.68;;
72801;SDS011;61891;55.818;37.084;2022-07-10T01:10:20;19.15;;;13.77;;
72801;SDS011;61891;55.818;37.084;2022-07-10T01:12:46;20.35;;;14.82;;
72801;SDS011;61891;55.818;37.084;2022-07-10T01:15:13;19.00;;;15.13;;
72801;SDS011;61891;55.818;37.084;2022-07-10T01:17:39;19.08;;;13.95;;
72801;SDS011;61891;55.818;37.084;2022-07-10T01:20:08;19.30;;;13.57;;
72801;SDS011;61891;55.818;37.084;2022-07-10T01:22:37;17.40;;;13.85;;
72801;SDS011;61891;55.818;37.084;2022-07-10T01:25:03;17.70;;;13.65;;
72801;SDS011;61891;55.818;37.084;2022-07-10T01:27:31;19.40;;;13.88;;
72801;SDS011;61891;55.818;37.084;2022-07-10T01:29:56;17.30;;;13.80;;
72801;SDS011;61891;55.818;37.084;2022-07-10T01:32:24;19.05;;;13.75;;
72801;SDS011;61891;55.818;37.084;2022-07-10T01:34:55;17.35;;;13.27;;
72801;SDS011;61891;55.818;37.084;2022-07-10T01:37:21;16.77;;;13.65;;
72801;SDS011;61891;55.818;37.084;2022-07-10T01:39:46;17.15;;;13.52;;
72801;SDS011;61891;55.818;37.084;2022-07-10T01:42:12;17.17;;;13.38;;
72801;SDS011;61891;55.818;37.084;2022-07-10T01:44:38;18.88;;;14.02;;
72801;SDS011;61891;55.818;37.084;2022-07-10T01:47:04;19.42;;;13.85;;
72801;SDS011;61891;55.818;37.084;2022-07-10T01:49:29;19.23;;;14.07;;
72801;SDS011;61891;55.818;37.084;2022-07-10T01:51:56;16.55;;;13.63;;
72801;SDS011;61891;55.818;37.084;2022-07-10T01:54:22;16.95;;;12.95;;
72801;SDS011;61891;55.818;37.084;2022-07-10T01:56:48;15.23;;;12.70;;
72801;SDS011;61891;55.818;37.084;2022-07-10T01:59:13;16.23;;;12.77;;
72801;SDS011;61891;55.818;37.084;2022-07-10T02:01:39;15.57;;;12.50;;
72801;SDS011;61891;55.818;37.084;2022-07-10T02:04:05;16.80;;;12.57;;
72801;SDS011;61891;55.818;37.084;2022-07-10T02:06:49;18.00;;;12.35;;
72801;SDS011;61891;55.818;37.084;2022-07-10T02:09:15;16.63;;;12.43;;
72801;SDS011;61891;55.818;37.084;2022-07-10T02:11:41;17.60;;;12.77;;
72801;SDS011;61891;55.818;37.084;2022-07-10T02:14:07;16.02;;;12.10;;
72801;SDS011;61891;55.818;37.084;2022-07-10T02:16:33;13.95;;;11.38;;
72801;SDS011;61891;55.818;37.084;2022-07-10T02:21:25;14.73;;;11.13;;
72801;SDS011;61891;55.818;37.084;2022-07-10T02:23:51;13.65;;;11.10;;
72801;SDS011;61891;55.818;37.084;2022-07-10T02:26:16;15.93;;;11.50;;
72801;SDS011;61891;55.818;37.084;2022-07-10T02:28:42;16.08;;;12.02;;
72801;SDS011;61891;55.818;37.084;2022-07-10T02:31:08;14.43;;;11.48;;
72801;SDS011;61891;55.818;37.084;2022-07-10T02:33:34;13.20;;;11.35;;
72801;SDS011;61891;55.818;37.084;2022-07-10T02:36:02;11.80;;;9.43;;
72801;SDS011;61891;55.818;37.084;2022-07-10T02:38:28;12.13;;;9.88;;
72801;SDS011;61891;55.818;37.084;2022-07-10T02:40:54;13.65;;;10.40;;
72801;SDS011;61891;55.818;37.084;2022-07-10T02:43:20;13.18;;;9.38;;
72801;SDS011;61891;55.818;37.084;2022-07-10T02:45:45;15.00;;;9.35;;
72801;SDS011;61891;55.818;37.084;2022-07-10T02:48:11;14.60;;;10.40;;
72801;SDS011;61891;55.818;37.084;2022-07-10T02:50:37;14.80;;;11.23;;
72801;SDS011;61891;55.818;37.084;2022-07-10T02:53:03;17.08;;;11.15;;
72801;SDS011;61891;55.818;37.084;2022-07-10T02:55:29;15.50;;;11.57;;
72801;SDS011;61891;55.818;37.084;2022-07-10T02:57:57;15.57;;;11.80;;
72801;SDS011;61891;55.818;37.084;2022-07-10T03:00:24;13.48;;;11.02;;
72801;SDS011;61891;55.818;37.084;2022-07-10T03:02:51;14.50;;;11.10;;
72801;SDS011;61891;55.818;37.084;2022-07-10T03:05:17;15.20;;;11.65;;
72801;SDS011;61891;55.818;37.084;2022-07-10T03:07:43;15.68;;;12.35;;
72801;SDS011;61891;55.818;37.084;2022-07-10T03:10:09;15.27;;;11.18;;
72801;SDS011;61891;55.818;37.084;2022-07-10T03:12:36;16.02;;;11.27;;
72801;SDS011;61891;55.818;37.084;2022-07-10T03:15:02;14.65;;;11.40;;
72801;SDS011;61891;55.818;37.084;2022-07-10T03:17:29;13.15;;;11.23;;
72801;SDS011;61891;55.818;37.084;2022-07-10T03:19:55;15.55;;;11.60;;
72801;SDS011;61891;55.818;37.084;2022-07-10T03:22:21;16.58;;;11.93;;
72801;SDS011;61891;55.818;37.084;2022-07-10T03:24:46;15.48;;;11.40;;
72801;SDS011;61891;55.818;37.084;2022-07-10T03:27:13;14.23;;;11.43;;
72801;SDS011;61891;55.818;37.084;2022-07-10T03:29:39;14.20;;;11.60;;
72801;SDS011;61891;55.818;37.084;2022-07-10T03:32:06;15.63;;;11.40;;
72801;SDS011;61891;55.818;37.084;2022-07-10T03:34:32;15.93;;;11.32;;
72801;SDS011;61891;55.818;37.084;2022-07-10T03:36:59;14.30;;;10.85;;
72801;SDS011;61891;55.818;37.084;2022-07-10T03:39:28;15.20;;;12.60;;
72801;SDS011;61891;55.818;37.084;2022-07-10T03:41:54;14.05;;;11.02;;
72801;SDS011;61891;55.818;37.084;2022-07-10T03:44:20;14.55;;;11.27;;
72801;SDS011;61891;55.818;37.084;2022-07-10T03:46:45;14.30;;;11.40;;
72801;SDS011;61891;55.818;37.084;2022-07-10T03:49:11;14.93;;;11.70;;
72801;SDS011;61891;55.818;37.084;2022-07-10T03:51:37;15.90;;;11.57;;
72801;SDS011;61891;55.818;37.084;2022-07-10T03:54:03;14.70;;;11.52;;
72801;SDS011;61891;55.818;37.084;2022-07-10T03:56:28;14.80;;;11.13;;
72801;SDS011;61891;55.818;37.084;2022-07-10T03:59:13;15.23;;;11.73;;
72801;SDS011;61891;55.818;37.084;2022-07-10T04:01:38;15.07;;;11.70;;
72801;SDS011;61891;55.818;37.084;2022-07-10T04:04:04;13.73;;;10.98;;
72801;SDS011;61891;55.818;37.084;2022-07-10T04:06:30;13.05;;;11.25;;
72801;SDS011;61891;55.818;37.084;2022-07-10T04:08:55;13.43;;;10.65;;
72801;SDS011;61891;55.818;37.084;2022-07-10T04:11:22;12.40;;;11.10;;
72801;SDS011;61891;55.818;37.084;2022-07-10T04:13:47;13.95;;;11.13;;
72801;SDS011;61891;55.818;37.084;2022-07-10T04:16:13;12.98;;;10.48;;
72801;SDS011;61891;55.818;37.084;2022-07-10T04:18:39;12.32;;;10.07;;
72801;SDS011;61891;55.818;37.084;2022-07-10T04:21:05;13.57;;;11.30;;
72801;SDS011;61891;55.818;37.084;2022-07-10T04:23:32;15.50;;;10.70;;
72801;SDS011;61891;55.818;37.084;2022-07-10T04:26:01;14.50;;;11.10;;
72801;SDS011;61891;55.818;37.084;2022-07-10T04:30:52;13.88;;;10.85;;
72801;SDS011;61891;55.818;37.084;2022-07-10T04:33:18;12.75;;;10.93;;
72801;SDS011;61891;55.818;37.084;2022-07-10T04:35:44;13.70;;;10.10;;
72801;SDS011;61891;55.818;37.084;2022-07-10T04:38:10;12.45;;;10.85;;
72801;SDS011;61891;55.818;37.084;2022-07-10T04:40:35;14.50;;;11.43;;
72801;SDS011;61891;55.818;37.084;2022-07-10T04:43:01;14.13;;;11.15;;
72801;SDS011;61891;55.818;37.084;2022-07-10T04:45:27;13.68;;;10.82;;
72801;SDS011;61891;55.818;37.084;2022-07-10T04:47:53;14.27;;;11.45;;
72801;SDS011;61891;55.818;37.084;2022-07-10T04:50:19;13.98;;;11.02;;
72801;SDS011;61891;55.818;37.084;2022-07-10T04:52:44;12.88;;;10.82;;
72801;SDS011;61891;55.818;37.084;2022-07-10T04:55:10;13.30;;;11.18;;
72801;SDS011;61891;55.818;37.084;2022-07-10T04:57:36;13.65;;;10.63;;
72801;SDS011;61891;55.818;37.084;2022-07-10T05:00:02;13.77;;;10.73;;
72801;SDS011;61891;55.818;37.084;2022-07-10T05:02:29;12.88;;;10.25;;
72801;SDS011;61891;55.818;37.084;2022-07-10T05:04:54;12.20;;;10.85;;
72801;SDS011;61891;55.818;37.084;2022-07-10T05:07:20;12.88;;;10.70;;
72801;SDS011;61891;55.818;37.084;2022-07-10T05:12:11;13.77;;;10.35;;
72801;SDS011;61891;55.818;37.084;2022-07-10T05:14:37;11.15;;;9.77;;
72801;SDS011;61891;55.818;37.084;2022-07-10T05:17:14;13.70;;;10.55;;
72801;SDS011;61891;55.818;37.084;2022-07-10T05:19:41;12.73;;;9.52;;
72801;SDS011;61891;55.818;37.084;2022-07-10T05:24:32;12.82;;;10.57;;
72801;SDS011;61891;55.818;37.084;2022-07-10T05:29:24;11.65;;;9.40;;
72801;SDS011;61891;55.818;37.084;2022-07-10T05:31:49;10.20;;;8.95;;
72801;SDS011;61891;55.818;37.084;2022-07-10T05:34:15;11.77;;;9.75;;
72801;SDS011;61891;55.818;37.084;2022-07-10T05:39:07;12.05;;;9.52;;
72801;SDS011;61891;55.818;37.084;2022-07-10T05:43:59;10.75;;;9.65;;
72801;SDS011;61891;55.818;37.084;2022-07-10T05:46:25;13.88;;;9.85;;
72801;SDS011;61891;55.818;37.084;2022-07-10T05:51:17;13.43;;;9.93;;
72801;SDS011;61891;55.818;37.084;2022-07-10T05:56:08;12.13;;;9.60;;
72801;SDS011;61891;55.818;37.084;2022-07-10T06:01:00;11.80;;;9.38;;
72801;SDS011;61891;55.818;37.084;2022-07-10T06:05:51;10.95;;;9.70;;
72801;SDS011;61891;55.818;37.084;2022-07-10T06:08:19;11.85;;;9.88;;
72801;SDS011;61891;55.818;37.084;2022-07-10T06:10:46;11.23;;;10.02;;
72801;SDS011;61891;55.818;37.084;2022-07-10T06:15:37;10.90;;;9.60;;
72801;SDS011;61891;55.818;37.084;2022-07-10T06:18:04;12.10;;;9.38;;
72801;SDS011;61891;55.818;37.084;2022-07-10T06:22:56;11.18;;;9.15;;
72801;SDS011;61891;55.818;37.084;2022-07-10T06:25:23;13.13;;;9.93;;
72801;SDS011;61891;55.818;37.084;2022-07-10T06:30:14;11.85;;;9.85;;
72801;SDS011;61891;55.818;37.084;2022-07-10T06:32:41;11.57;;;10.02;;
72801;SDS011;61891;55.818;37.084;2022-07-10T06:35:07;13.88;;;9.75;;
72801;SDS011;61891;55.818;37.084;2022-07-10T06:37:33;11.48;;;9.18;;
72801;SDS011;61891;55.818;37.084;2022-07-10T06:39:59;13.32;;;10.38;;
72801;SDS011;61891;55.818;37.084;2022-07-10T06:44:57;13.60;;;9.98;;
72801;SDS011;61891;55.818;37.084;2022-07-10T06:50:07;11.50;;;9.05;;
72801;SDS011;61891;55.818;37.084;2022-07-10T06:52:35;11.18;;;10.02;;
72801;SDS011;61891;55.818;37.084;2022-07-10T06:55:01;12.32;;;9.55;;
72801;SDS011;61891;55.818;37.084;2022-07-10T06:57:28;10.68;;;9.45;;
72801;SDS011;61891;55.818;37.084;2022-07-10T06:59:55;12.00;;;10.80;;
72801;SDS011;61891;55.818;37.084;2022-07-10T07:04:47;14.60;;;10.68;;
72801;SDS011;61891;55.818;37.084;2022-07-10T07:07:13;12.52;;;10.38;;
72801;SDS011;61891;55.818;37.084;2022-07-10T07:09:39;18.33;;;12.50;;
72801;SDS011;61891;55.818;37.084;2022-07-10T07:12:06;17.58;;;11.63;;
72801;SDS011;61891;55.818;37.084;2022-07-10T07:14:32;11.75;;;10.27;;
72801;SDS011;61891;55.818;37.084;2022-07-10T07:16:58;13.07;;;11.07;;
72801;SDS011;61891;55.818;37.084;2022-07-10T07:19:34;12.18;;;10.63;;
72801;SDS011;61891;55.818;37.084;2022-07-10T07:22:20;12.55;;;10.02;;
72801;SDS011;61891;55.818;37.084;2022-07-10T07:25:05;11.23;;;9.93;;
72801;SDS011;61891;55.818;37.084;2022-07-10T07:27:35;12.05;;;10.15;;
72801;SDS011;61891;55.818;37.084;2022-07-10T07:30:03;13.43;;;9.35;;
72801;SDS011;61891;55.818;37.084;2022-07-10T07:32:29;13.77;;;9.88;;
72801;SDS011;61891;55.818;37.084;2022-07-10T07:34:56;13.68;;;9.38;;
72801;SDS011;61891;55.818;37.084;2022-07-10T07:37:21;10.75;;;9.65;;
72801;SDS011;61891;55.818;37.084;2022-07-10T07:39:49;12.45;;;9.45;;
72801;SDS011;61891;55.818;37.084;2022-07-10T07:42:15;13.07;;;9.55;;
72801;SDS011;61891;55.818;37.084;2022-07-10T07:44:40;12.10;;;9.07;;
72801;SDS011;61891;55.818;37.084;2022-07-10T07:47:06;13.23;;;9.43;;
72801;SDS011;61891;55.818;37.084;2022-07-10T07:49:32;13.55;;;9.65;;
72801;SDS011;61891;55.818;37.084;2022-07-10T07:51:58;14.10;;;9.55;;
72801;SDS011;61891;55.818;37.084;2022-07-10T07:54:25;11.25;;;9.00;;
72801;SDS011;61891;55.818;37.084;2022-07-10T07:56:51;12.35;;;8.52;;
72801;SDS011;61891;55.818;37.084;2022-07-10T07:59:17;11.48;;;9.43;;
72801;SDS011;61891;55.818;37.084;2022-07-10T08:04:08;11.07;;;8.63;;
72801;SDS011;61891;55.818;37.084;2022-07-10T08:06:34;11.63;;;9.32;;
72801;SDS011;61891;55.818;37.084;2022-07-10T08:09:00;11.65;;;8.90;;
72801;SDS011;61891;55.818;37.084;2022-07-10T08:11:29;11.68;;;8.63;;
72801;SDS011;61891;55.818;37.084;2022-07-10T08:13:54;10.93;;;8.73;;
72801;SDS011;61891;55.818;37.084;2022-07-10T08:16:20;11.10;;;8.40;;
72801;SDS011;61891;55.818;37.084;2022-07-10T08:18:46;9.75;;;8.25;;
72801;SDS011;61891;55.818;37.084;2022-07-10T08:21:12;10.98;;;8.90;;
72801;SDS011;61891;55.818;37.084;2022-07-10T08:23:37;10.73;;;8.15;;
72801;SDS011;61891;55.818;37.084;2022-07-10T08:26:03;11.45;;;9.32;;
72801;SDS011;61891;55.818;37.084;2022-07-10T08:28:29;11.15;;;9.10;;
72801;SDS011;61891;55.818;37.084;2022-07-10T08:30:55;11.48;;;9.07;;
72801;SDS011;61891;55.818;37.084;2022-07-10T08:33:21;15.63;;;10.90;;
72801;SDS011;61891;55.818;37.084;2022-07-10T08:35:47;15.73;;;10.27;;
72801;SDS011;61891;55.818;37.084;2022-07-10T08:38:12;12.07;;;9.23;;
72801;SDS011;61891;55.818;37.084;2022-07-10T08:40:38;10.55;;;7.85;;
72801;SDS011;61891;55.818;37.084;2022-07-10T08:43:05;9.18;;;8.15;;
72801;SDS011;61891;55.818;37.084;2022-07-10T08:45:32;9.88;;;8.30;;
72801;SDS011;61891;55.818;37.084;2022-07-10T08:48:01;10.75;;;9.23;;
72801;SDS011;61891;55.818;37.084;2022-07-10T08:50:32;12.98;;;9.38;;
72801;SDS011;61891;55.818;37.084;2022-07-10T08:53:18;13.10;;;10.15;;
72801;SDS011;61891;55.818;37.084;2022-07-10T08:55:53;11.90;;;9.65;;
72801;SDS011;61891;55.818;37.084;2022-07-10T08:58:19;11.63;;;9.95;;
72801;SDS011;61891;55.818;37.084;2022-07-10T09:00:47;13.15;;;10.95;;
72801;SDS011;61891;55.818;37.084;2022-07-10T09:03:13;14.05;;;10.93;;
72801;SDS011;61891;55.818;37.084;2022-07-10T09:05:38;14.32;;;10.93;;
72801;SDS011;61891;55.818;37.084;2022-07-10T09:08:09;14.70;;;10.30;;
72801;SDS011;61891;55.818;37.084;2022-07-10T09:10:47;12.23;;;10.00;;
72801;SDS011;61891;55.818;37.084;2022-07-10T09:13:13;13.35;;;10.55;;
72801;SDS011;61891;55.818;37.084;2022-07-10T09:18:05;13.73;;;9.63;;
72801;SDS011;61891;55.818;37.084;2022-07-10T09:23:15;14.20;;;10.15;;
72801;SDS011;61891;55.818;37.084;2022-07-10T09:25:43;12.75;;;10.23;;
72801;SDS011;61891;55.818;37.084;2022-07-10T09:28:09;13.07;;;9.60;;
72801;SDS011;61891;55.818;37.084;2022-07-10T09:30:39;14.38;;;10.07;;
72801;SDS011;61891;55.818;37.084;2022-07-10T09:33:22;12.38;;;10.52;;
72801;SDS011;61891;55.818;37.084;2022-07-10T09:35:56;12.35;;;10.13;;
72801;SDS011;61891;55.818;37.084;2022-07-10T09:41:12;13.98;;;10.38;;
72801;SDS011;61891;55.818;37.084;2022-07-10T09:44:13;16.23;;;9.45;;
72801;SDS011;61891;55.818;37.084;2022-07-10T09:46:34;13.75;;;9.90;;
72801;SDS011;61891;55.818;37.084;2022-07-10T09:49:11;10.75;;;9.35;;
72801;SDS011;61891;55.818;37.084;2022-07-10T09:51:40;12.20;;;9.32;;
72801;SDS011;61891;55.818;37.084;2022-07-10T09:54:08;16.83;;;9.23;;
72801;SDS011;61891;55.818;37.084;2022-07-10T09:56:42;14.18;;;10.00;;
72801;SDS011;61891;55.818;37.084;2022-07-10T09:59:13;13.55;;;9.43;;
72801;SDS011;61891;55.818;37.084;2022-07-10T10:01:47;11.90;;;9.05;;
72801;SDS011;61891;55.818;37.084;2022-07-10T10:04:15;12.25;;;8.27;;
72801;SDS011;61891;55.818;37.084;2022-07-10T10:06:52;11.30;;;8.68;;
72801;SDS011;61891;55.818;37.084;2022-07-10T10:09:21;17.80;;;9.63;;
72801;SDS011;61891;55.818;37.084;2022-07-10T10:11:48;13.20;;;9.05;;
72801;SDS011;61891;55.818;37.084;2022-07-10T10:14:18;11.30;;;8.93;;
72801;SDS011;61891;55.818;37.084;2022-07-10T10:16:45;10.23;;;9.23;;
72801;SDS011;61891;55.818;37.084;2022-07-10T10:19:12;11.50;;;8.82;;
72801;SDS011;61891;55.818;37.084;2022-07-10T10:21:58;11.43;;;8.75;;
72801;SDS011;61891;55.818;37.084;2022-07-10T10:24:28;14.38;;;8.50;;
72801;SDS011;61891;55.818;37.084;2022-07-10T10:26:57;9.98;;;7.97;;
72801;SDS011;61891;55.818;37.084;2022-07-10T10:29:23;22.23;;;12.35;;
72801;SDS011;61891;55.818;37.084;2022-07-10T10:31:49;10.70;;;8.55;;
72801;SDS011;61891;55.818;37.084;2022-07-10T10:34:21;9.00;;;7.80;;
72801;SDS011;61891;55.818;37.084;2022-07-10T10:39:59;9.57;;;8.10;;
72801;SDS011;61891;55.818;37.084;2022-07-10T10:42:32;6.82;;;6.22;;
72801;SDS011;61891;55.818;37.084;2022-07-10T10:58:26;7.10;;;6.40;;
72801;SDS011;61891;55.818;37.084;2022-07-10T11:01:23;7.03;;;6.32;;
72801;SDS011;61891;55.818;37.084;2022-07-10T11:07:07;7.93;;;6.03;;
72801;SDS011;61891;55.818;37.084;2022-07-10T11:09:28;8.93;;;6.32;;
72801;SDS011;61891;55.818;37.084;2022-07-10T11:14:37;11.88;;;6.53;;
72801;SDS011;61891;55.818;37.084;2022-07-10T11:17:09;7.30;;;5.65;;
72801;SDS011;61891;55.818;37.084;2022-07-10T11:19:35;7.30;;;5.78;;
72801;SDS011;61891;55.818;37.084;2022-07-10T11:30:04;7.80;;;6.32;;
72801;SDS011;61891;55.818;37.084;2022-07-10T11:32:30;10.13;;;6.53;;
72801;SDS011;61891;55.818;37.084;2022-07-10T11:35:05;7.07;;;6.40;;
72801;SDS011;61891;55.818;37.084;2022-07-10T11:37:36;9.30;;;6.50;;
72801;SDS011;61891;55.818;37.084;2022-07-10T11:40:13;6.50;;;5.90;;
72801;SDS011;61891;55.818;37.084;2022-07-10T11:42:49;6.80;;;6.10;;
72801;SDS011;61891;55.818;37.084;2022-07-10T11:47:47;7.63;;;6.78;;
72801;SDS011;61891;55.818;37.084;2022-07-10T11:50:13;7.07;;;5.82;;
72801;SDS011;61891;55.818;37.084;2022-07-10T11:52:39;8.85;;;6.82;;
72801;SDS011;61891;55.818;37.084;2022-07-10T11:55:13;7.30;;;5.63;;
72801;SDS011;61891;55.818;37.084;2022-07-10T11:57:42;6.38;;;5.78;;
72801;SDS011;61891;55.818;37.084;2022-07-10T12:00:24;7.72;;;5.88;;
72801;SDS011;61891;55.818;37.084;2022-07-10T12:02:55;6.85;;;5.50;;
72801;SDS011;61891;55.818;37.084;2022-07-10T12:08:05;8.02;;;7.25;;
72801;SDS011;61891;55.818;37.084;2022-07-10T12:10:31;6.28;;;5.65;;
72801;SDS011;61891;55.818;37.084;2022-07-10T12:13:06;6.20;;;5.07;;
72801;SDS011;61891;55.818;37.084;2022-07-10T12:15:40;9.27;;;5.60;;
72801;SDS011;61891;55.818;37.084;2022-07-10T12:18:08;5.50;;;5.10;;
72801;SDS011;61891;55.818;37.084;2022-07-10T12:20:43;6.90;;;5.40;;
72801;SDS011;61891;55.818;37.084;2022-07-10T12:23:16;7.85;;;5.72;;
72801;SDS011;61891;55.818;37.084;2022-07-10T12:25:43;6.47;;;5.30;;
72801;SDS011;61891;55.818;37.084;2022-07-10T12:28:10;6.80;;;6.18;;
72801;SDS011;61891;55.818;37.084;2022-07-10T12:30:41;6.57;;;5.97;;
72801;SDS011;61891;55.818;37.084;2022-07-10T12:33:20;5.50;;;4.82;;
72801;SDS011;61891;55.818;37.084;2022-07-10T12:35:55;5.70;;;5.05;;
72801;SDS011;61891;55.818;37.084;2022-07-10T12:38:24;5.38;;;4.88;;
72801;SDS011;61891;55.818;37.084;2022-07-10T12:41:08;5.47;;;4.97;;
72801;SDS011;61891;55.818;37.084;2022-07-10T12:43:35;6.72;;;5.97;;
72801;SDS011;61891;55.818;37.084;2022-07-10T12:46:12;7.30;;;6.63;;
72801;SDS011;61891;55.818;37.084;2022-07-10T12:49:05;6.32;;;5.57;;
72801;SDS011;61891;55.818;37.084;2022-07-10T12:51:43;5.20;;;4.70;;
72801;SDS011;61891;55.818;37.084;2022-07-10T12:54:30;6.68;;;5.57;;
72801;SDS011;61891;55.818;37.084;2022-07-10T12:56:59;5.63;;;4.90;;
72801;SDS011;61891;55.818;37.084;2022-07-10T12:59:26;6.30;;;4.72;;
72801;SDS011;61891;55.818;37.084;2022-07-10T13:01:54;5.85;;;5.15;;
72801;SDS011;61891;55.818;37.084;2022-07-10T13:04:23;5.55;;;5.15;;
72801;SDS011;61891;55.818;37.084;2022-07-10T13:06:52;7.35;;;5.97;;
72801;SDS011;61891;55.818;37.084;2022-07-10T13:09:20;5.32;;;4.80;;
72801;SDS011;61891;55.818;37.084;2022-07-10T13:11:48;5.68;;;5.10;;
72801;SDS011;61891;55.818;37.084;2022-07-10T13:14:14;6.13;;;5.30;;
72801;SDS011;61891;55.818;37.084;2022-07-10T13:16:41;7.72;;;5.40;;
72801;SDS011;61891;55.818;37.084;2022-07-10T13:19:07;6.63;;;4.82;;
72801;SDS011;61891;55.818;37.084;2022-07-10T13:21:32;5.90;;;5.30;;
72801;SDS011;61891;55.818;37.084;2022-07-10T13:23:58;6.32;;;5.72;;
72801;SDS011;61891;55.818;37.084;2022-07-10T13:26:24;5.55;;;5.10;;
72801;SDS011;61891;55.818;37.084;2022-07-10T13:28:50;6.60;;;5.13;;
72801;SDS011;61891;55.818;37.084;2022-07-10T13:31:15;5.65;;;4.90;;
72801;SDS011;61891;55.818;37.084;2022-07-10T13:33:41;5.35;;;4.95;;
72801;SDS011;61891;55.818;37.084;2022-07-10T13:36:07;5.82;;;4.28;;
72801;SDS011;61891;55.818;37.084;2022-07-10T13:38:34;5.70;;;5.20;;
72801;SDS011;61891;55.818;37.084;2022-07-10T13:41:00;5.45;;;4.25;;
72801;SDS011;61891;55.818;37.084;2022-07-10T13:43:26;6.10;;;5.50;;
72801;SDS011;61891;55.818;37.084;2022-07-10T13:45:57;5.93;;;4.65;;
72801;SDS011;61891;55.818;37.084;2022-07-10T13:48:25;5.60;;;4.63;;
72801;SDS011;61891;55.818;37.084;2022-07-10T13:50:51;6.68;;;5.43;;
72801;SDS011;61891;55.818;37.084;2022-07-10T13:53:17;6.00;;;5.05;;
72801;SDS011;61891;55.818;37.084;2022-07-10T13:55:44;8.23;;;4.90;;
72801;SDS011;61891;55.818;37.084;2022-07-10T13:58:11;5.63;;;4.88;;
72801;SDS011;61891;55.818;37.084;2022-07-10T14:00:37;5.65;;;5.03;;
72801;SDS011;61891;55.818;37.084;2022-07-10T14:03:03;5.93;;;4.72;;
72801;SDS011;61891;55.818;37.084;2022-07-10T14:05:30;5.93;;;5.05;;
72801;SDS011;61891;55.818;37.084;2022-07-10T14:07:58;4.95;;;4.47;;
72801;SDS011;61891;55.818;37.084;2022-07-10T14:10:24;6.45;;;4.97;;
72801;SDS011;61891;55.818;37.084;2022-07-10T14:12:51;8.05;;;5.65;;
72801;SDS011;61891;55.818;37.084;2022-07-10T14:15:18;9.00;;;8.13;;
72801;SDS011;61891;55.818;37.084;2022-07-10T14:17:45;8.88;;;6.45;;
72801;SDS011;61891;55.818;37.084;2022-07-10T14:20:11;6.70;;;5.20;;
72801;SDS011;61891;55.818;37.084;2022-07-10T14:22:37;8.88;;;6.07;;
72801;SDS011;61891;55.818;37.084;2022-07-10T14:25:03;6.95;;;5.18;;
72801;SDS011;61891;55.818;37.084;2022-07-10T14:27:30;6.28;;;5.60;;
72801;SDS011;61891;55.818;37.084;2022-07-10T14:29:59;14.40;;;7.60;;
72801;SDS011;61891;55.818;37.084;2022-07-10T14:32:25;10.95;;;9.77;;
72801;SDS011;61891;55.818;37.084;2022-07-10T14:34:51;15.88;;;10.93;;
72801;SDS011;61891;55.818;37.084;2022-07-10T14:37:17;14.88;;;10.20;;
72801;SDS011;61891;55.818;37.084;2022-07-10T14:39:43;16.02;;;11.38;;
72801;SDS011;61891;55.818;37.084;2022-07-10T14:42:11;15.00;;;11.05;;
72801;SDS011;61891;55.818;37.084;2022-07-10T14:44:37;6.55;;;3.53;;
72801;SDS011;61891;55.818;37.084;2022-07-10T14:47:03;3.60;;;2.53;;
72801;SDS011;61891;55.818;37.084;2022-07-10T14:49:29;4.47;;;2.13;;
72801;SDS011;61891;55.818;37.084;2022-07-10T14:51:55;4.78;;;2.22;;
72801;SDS011;61891;55.818;37.084;2022-07-10T14:54:21;8.27;;;2.53;;
72801;SDS011;61891;55.818;37.084;2022-07-10T17:05:09;7.15;;;6.00;;
72801;SDS011;61891;55.818;37.084;2022-07-10T17:07:36;6.78;;;5.57;;
72801;SDS011;61891;55.818;37.084;2022-07-10T17:10:04;6.30;;;5.70;;
72801;SDS011;61891;55.818;37.084;2022-07-10T17:12:31;7.10;;;6.20;;
72801;SDS011;61891;55.818;37.084;2022-07-10T17:14:58;6.95;;;5.78;;
72801;SDS011;61891;55.818;37.084;2022-07-10T17:17:25;7.63;;;5.72;;
72801;SDS011;61891;55.818;37.084;2022-07-10T17:19:51;7.15;;;4.72;;
72801;SDS011;61891;55.818;37.084;2022-07-10T17:22:17;8.23;;;5.70;;
72801;SDS011;61891;55.818;37.084;2022-07-10T17:24:44;7.43;;;5.65;;
72801;SDS011;61891;55.818;37.084;2022-07-10T17:27:10;9.00;;;5.10;;
72801;SDS011;61891;55.818;37.084;2022-07-10T17:29:36;7.57;;;5.25;;
72801;SDS011;61891;55.818;37.084;2022-07-10T17:32:02;6.72;;;5.18;;
72801;SDS011;61891;55.818;37.084;2022-07-10T17:36:54;5.63;;;4.90;;
72801;SDS011;61891;55.818;37.084;2022-07-10T17:39:20;7.65;;;6.85;;
72801;SDS011;61891;55.818;37.084;2022-07-10T17:41:47;8.88;;;7.20;;
72801;SDS011;61891;55.818;37.084;2022-07-10T17:44:13;9.18;;;6.50;;
72801;SDS011;61891;55.818;37.084;2022-07-10T17:46:39;12.82;;;11.07;;
72801;SDS011;61891;55.818;37.084;2022-07-10T17:49:05;12.85;;;11.48;;
72801;SDS011;61891;55.818;37.084;2022-07-10T17:53:56;9.88;;;8.27;;
72801;SDS011;61891;55.818;37.084;2022-07-10T17:58:48;9.35;;;8.27;;
72801;SDS011;61891;55.818;37.084;2022-07-10T18:01:15;8.10;;;6.10;;
72801;SDS011;61891;55.818;37.084;2022-07-10T18:03:41;8.77;;;7.13;;
72801;SDS011;61891;55.818;37.084;2022-07-10T18:06:07;9.13;;;6.93;;
72801;SDS011;61891;55.818;37.084;2022-07-10T18:08:33;6.40;;;5.55;;
72801;SDS011;61891;55.818;37.084;2022-07-10T18:13:26;7.07;;;4.90;;